sensor_id;sensor_type;location;lat;lon;timestamp;P1;durP1;ratioP1;P2;durP2;ratioP2
21624;SDS011;10974;51.034;3.744;2023-04-06T03:39:31;19.60;;;11.60;;
21624;SDS011;10974;51.034;3.744;2023-04-06T03:41:57;24.63;;;12.90;;
21624;SDS011;10974;51.034;3.744;2023-04-06T03:44:23;24.30;;;12.47;;
21624;SDS011;10974;51.034;3.744;2023-04-06T03:46:49;21.43;;;12.53;;
21624;SDS011;10974;51.034;3.744;2023-04-06T03:49:15;22.33;;;13.30;;
21624;SDS011;10974;51.034;3.744;2023-04-06T03:51:41;17.67;;;12.10;;
21624;SDS011;10974;51.034;3.744;2023-04-06T03:54:07;23.67;;;12.80;;
21624;SDS011;10974;51.034;3.744;2023-04-06T03:56:33;19.87;;;12.30;;
21624;SDS011;10974;51.034;3.744;2023-04-06T03:59:00;24.60;;;13.40;;
21624;SDS011;10974;51.034;3.744;2023-04-06T04:01:26;22.33;;;13.50;;
21624;SDS011;10974;51.034;3.744;2023-04-06T04:03:53;22.13;;;12.30;;
21624;SDS011;10974;51.034;3.744;2023-04-06T04:06:19;23.90;;;13.67;;
21624;SDS011;10974;51.034;3.744;2023-04-06T04:08:45;21.93;;;11.87;;
21624;SDS011;10974;51.034;3.744;2023-04-06T04:11:11;22.63;;;12.17;;
21624;SDS011;10974;51.034;3.744;2023-04-06T04:13:37;21.30;;;13.50;;
21624;SDS011;10974;51.034;3.744;2023-04-06T04:16:03;25.37;;;13.30;;
21624;SDS011;10974;51.034;3.744;2023-04-06T04:18:30;21.10;;;13.10;;
21624;SDS011;10974;51.034;3.744;2023-04-06T04:20:56;25.73;;;13.97;;
21624;SDS011;10974;51.034;3.744;2023-04-06T04:23:22;20.47;;;11.73;;
21624;SDS011;10974;51.034;3.744;2023-04-06T04:25:48;25.67;;;12.77;;
21624;SDS011;10974;51.034;3.744;2023-04-06T04:28:14;22.10;;;11.93;;
21624;SDS011;10974;51.034;3.744;2023-04-06T04:30:40;17.37;;;11.20;;
21624;SDS011;10974;51.034;3.744;2023-04-06T04:33:06;19.90;;;11.47;;
21624;SDS011;10974;51.034;3.744;2023-04-06T04:35:32;18.93;;;12.00;;
21624;SDS011;10974;51.034;3.744;2023-04-06T04:37:58;18.63;;;11.70;;
21624;SDS011;10974;51.034;3.744;2023-04-06T04:40:24;20.47;;;12.67;;
21624;SDS011;10974;51.034;3.744;2023-04-06T04:42:50;22.20;;;12.10;;
21624;SDS011;10974;51.034;3.744;2023-04-06T04:45:16;18.53;;;11.40;;
21624;SDS011;10974;51.034;3.744;2023-04-06T04:47:42;21.43;;;12.37;;
21624;SDS011;10974;51.034;3.744;2023-04-06T04:50:08;21.87;;;11.47;;
21624;SDS011;10974;51.034;3.744;2023-04-06T04:52:35;17.77;;;11.03;;
21624;SDS011;10974;51.034;3.744;2023-04-06T04:55:01;19.93;;;11.20;;
21624;SDS011;10974;51.034;3.744;2023-04-06T04:57:27;19.87;;;10.80;;
21624;SDS011;10974;51.034;3.744;2023-04-06T04:59:53;15.90;;;11.13;;
21624;SDS011;10974;51.034;3.744;2023-04-06T05:02:19;18.20;;;11.10;;
21624;SDS011;10974;51.034;3.744;2023-04-06T05:04:45;17.07;;;10.43;;
21624;SDS011;10974;51.034;3.744;2023-04-06T05:07:11;19.20;;;12.07;;
21624;SDS011;10974;51.034;3.744;2023-04-06T05:09:38;22.40;;;9.90;;
21624;SDS011;10974;51.034;3.744;2023-04-06T05:12:04;14.50;;;10.00;;
21624;SDS011;10974;51.034;3.744;2023-04-06T05:14:30;17.73;;;9.50;;
21624;SDS011;10974;51.034;3.744;2023-04-06T05:16:56;17.53;;;9.80;;
21624;SDS011;10974;51.034;3.744;2023-04-06T05:19:22;15.27;;;9.80;;
21624;SDS011;10974;51.034;3.744;2023-04-06T05:21:48;17.30;;;9.33;;
21624;SDS011;10974;51.034;3.744;2023-04-06T05:24:14;15.60;;;9.40;;
21624;SDS011;10974;51.034;3.744;2023-04-06T05:26:40;17.80;;;9.67;;
21624;SDS011;10974;51.034;3.744;2023-04-06T05:29:06;17.47;;;10.63;;
21624;SDS011;10974;51.034;3.744;2023-04-06T05:31:33;17.30;;;10.50;;
21624;SDS011;10974;51.034;3.744;2023-04-06T05:33:59;14.87;;;9.30;;
21624;SDS011;10974;51.034;3.744;2023-04-06T05:36:25;14.07;;;9.93;;
21624;SDS011;10974;51.034;3.744;2023-04-06T05:38:51;14.20;;;8.57;;
21624;SDS011;10974;51.034;3.744;2023-04-06T05:41:17;17.87;;;9.50;;
21624;SDS011;10974;51.034;3.744;2023-04-06T05:43:44;12.63;;;8.73;;
21624;SDS011;10974;51.034;3.744;2023-04-06T05:46:10;16.13;;;9.23;;
21624;SDS011;10974;51.034;3.744;2023-04-06T05:48:36;14.70;;;8.73;;
21624;SDS011;10974;51.034;3.744;2023-04-06T05:51:02;17.40;;;10.13;;
21624;SDS011;10974;51.034;3.744;2023-04-06T05:53:31;17.50;;;10.90;;
21624;SDS011;10974;51.034;3.744;2023-04-06T05:56:00;15.90;;;11.07;;
21624;SDS011;10974;51.034;3.744;2023-04-06T05:58:26;22.03;;;14.73;;
21624;SDS011;10974;51.034;3.744;2023-04-06T06:00:56;23.80;;;15.20;;
21624;SDS011;10974;51.034;3.744;2023-04-06T06:03:22;21.67;;;14.00;;
21624;SDS011;10974;51.034;3.744;2023-04-06T06:05:48;18.77;;;13.07;;
21624;SDS011;10974;51.034;3.744;2023-04-06T06:08:14;19.40;;;13.40;;
21624;SDS011;10974;51.034;3.744;2023-04-06T06:10:40;22.47;;;13.77;;
21624;SDS011;10974;51.034;3.744;2023-04-06T06:13:06;21.33;;;13.93;;
21624;SDS011;10974;51.034;3.744;2023-04-06T06:15:33;20.93;;;13.80;;
21624;SDS011;10974;51.034;3.744;2023-04-06T06:17:59;22.13;;;13.50;;
21624;SDS011;10974;51.034;3.744;2023-04-06T06:20:25;19.43;;;13.33;;
21624;SDS011;10974;51.034;3.744;2023-04-06T06:22:52;17.50;;;12.87;;
21624;SDS011;10974;51.034;3.744;2023-04-06T06:25:18;19.27;;;13.97;;
21624;SDS011;10974;51.034;3.744;2023-04-06T06:27:44;22.07;;;11.40;;
21624;SDS011;10974;51.034;3.744;2023-04-06T06:30:10;15.60;;;11.53;;
21624;SDS011;10974;51.034;3.744;2023-04-06T06:32:36;13.83;;;9.80;;
21624;SDS011;10974;51.034;3.744;2023-04-06T06:35:02;16.73;;;10.20;;
21624;SDS011;10974;51.034;3.744;2023-04-06T06:37:28;12.23;;;9.63;;
21624;SDS011;10974;51.034;3.744;2023-04-06T06:39:54;14.63;;;9.60;;
21624;SDS011;10974;51.034;3.744;2023-04-06T06:42:20;21.60;;;10.40;;
21624;SDS011;10974;51.034;3.744;2023-04-06T06:44:47;13.23;;;9.77;;
21624;SDS011;10974;51.034;3.744;2023-04-06T06:47:13;12.73;;;9.40;;
21624;SDS011;10974;51.034;3.744;2023-04-06T06:49:39;13.03;;;8.97;;
21624;SDS011;10974;51.034;3.744;2023-04-06T06:52:05;13.97;;;9.10;;
21624;SDS011;10974;51.034;3.744;2023-04-06T06:54:31;13.23;;;8.20;;
21624;SDS011;10974;51.034;3.744;2023-04-06T06:56:57;11.17;;;8.13;;
21624;SDS011;10974;51.034;3.744;2023-04-06T06:59:23;16.07;;;8.57;;
21624;SDS011;10974;51.034;3.744;2023-04-06T07:01:49;13.23;;;8.60;;
21624;SDS011;10974;51.034;3.744;2023-04-06T07:04:15;13.80;;;8.80;;
21624;SDS011;10974;51.034;3.744;2023-04-06T07:06:41;13.00;;;7.80;;
21624;SDS011;10974;51.034;3.744;2023-04-06T07:09:07;10.87;;;6.97;;
21624;SDS011;10974;51.034;3.744;2023-04-06T07:11:33;9.93;;;6.80;;
21624;SDS011;10974;51.034;3.744;2023-04-06T07:14:00;9.50;;;6.27;;
21624;SDS011;10974;51.034;3.744;2023-04-06T07:16:26;9.87;;;7.20;;
21624;SDS011;10974;51.034;3.744;2023-04-06T07:18:52;12.03;;;6.70;;
21624;SDS011;10974;51.034;3.744;2023-04-06T07:21:18;11.47;;;6.43;;
21624;SDS011;10974;51.034;3.744;2023-04-06T07:23:44;7.33;;;5.87;;
21624;SDS011;10974;51.034;3.744;2023-04-06T07:26:13;7.20;;;5.50;;
21624;SDS011;10974;51.034;3.744;2023-04-06T07:28:39;7.03;;;5.20;;
21624;SDS011;10974;51.034;3.744;2023-04-06T07:31:05;8.10;;;6.00;;
21624;SDS011;10974;51.034;3.744;2023-04-06T07:33:31;11.43;;;5.77;;
21624;SDS011;10974;51.034;3.744;2023-04-06T07:35:57;11.20;;;5.97;;
21624;SDS011;10974;51.034;3.744;2023-04-06T07:38:24;12.63;;;6.57;;
21624;SDS011;10974;51.034;3.744;2023-04-06T07:40:50;8.40;;;6.50;;
21624;SDS011;10974;51.034;3.744;2023-04-06T07:43:16;13.03;;;7.00;;
21624;SDS011;10974;51.034;3.744;2023-04-06T07:45:42;10.97;;;7.00;;
21624;SDS011;10974;51.034;3.744;2023-04-06T07:48:08;13.10;;;9.23;;
21624;SDS011;10974;51.034;3.744;2023-04-06T07:50:35;11.93;;;8.27;;
21624;SDS011;10974;51.034;3.744;2023-04-06T07:53:01;10.50;;;7.13;;
21624;SDS011;10974;51.034;3.744;2023-04-06T07:55:27;9.87;;;7.30;;
21624;SDS011;10974;51.034;3.744;2023-04-06T07:57:53;9.27;;;6.80;;
21624;SDS011;10974;51.034;3.744;2023-04-06T08:00:20;9.20;;;6.53;;
21624;SDS011;10974;51.034;3.744;2023-04-06T08:02:46;8.20;;;6.80;;
21624;SDS011;10974;51.034;3.744;2023-04-06T08:05:12;10.67;;;7.83;;
21624;SDS011;10974;51.034;3.744;2023-04-06T08:07:38;9.37;;;7.40;;
21624;SDS011;10974;51.034;3.744;2023-04-06T08:10:04;10.57;;;7.13;;
21624;SDS011;10974;51.034;3.744;2023-04-06T08:12:32;12.67;;;6.80;;
21624;SDS011;10974;51.034;3.744;2023-04-06T08:14:58;10.63;;;6.80;;
21624;SDS011;10974;51.034;3.744;2023-04-06T08:17:24;7.63;;;6.17;;
21624;SDS011;10974;51.034;3.744;2023-04-06T08:19:52;8.17;;;6.60;;
21624;SDS011;10974;51.034;3.744;2023-04-06T08:22:18;12.13;;;6.50;;
21624;SDS011;10974;51.034;3.744;2023-04-06T08:24:44;10.70;;;7.00;;
21624;SDS011;10974;51.034;3.744;2023-04-06T08:27:10;12.33;;;6.20;;
21624;SDS011;10974;51.034;3.744;2023-04-06T08:29:38;7.60;;;6.10;;
21624;SDS011;10974;51.034;3.744;2023-04-06T08:32:04;10.07;;;7.07;;
21624;SDS011;10974;51.034;3.744;2023-04-06T08:34:34;10.77;;;6.40;;
21624;SDS011;10974;51.034;3.744;2023-04-06T08:37:00;9.33;;;7.60;;
21624;SDS011;10974;51.034;3.744;2023-04-06T08:39:26;8.63;;;6.73;;
21624;SDS011;10974;51.034;3.744;2023-04-06T08:41:53;10.10;;;7.37;;
21624;SDS011;10974;51.034;3.744;2023-04-06T08:44:22;8.50;;;6.50;;
21624;SDS011;10974;51.034;3.744;2023-04-06T08:46:49;11.77;;;7.73;;
21624;SDS011;10974;51.034;3.744;2023-04-06T08:49:16;10.43;;;7.83;;
21624;SDS011;10974;51.034;3.744;2023-04-06T08:51:43;9.87;;;7.97;;
21624;SDS011;10974;51.034;3.744;2023-04-06T08:54:09;10.47;;;7.50;;
21624;SDS011;10974;51.034;3.744;2023-04-06T08:56:39;9.53;;;7.80;;
21624;SDS011;10974;51.034;3.744;2023-04-06T08:59:05;10.33;;;7.50;;
21624;SDS011;10974;51.034;3.744;2023-04-06T09:01:33;31.00;;;9.60;;
21624;SDS011;10974;51.034;3.744;2023-04-06T09:03:59;12.13;;;8.37;;
21624;SDS011;10974;51.034;3.744;2023-04-06T09:06:26;11.60;;;8.63;;
21624;SDS011;10974;51.034;3.744;2023-04-06T09:08:52;9.93;;;7.77;;
21624;SDS011;10974;51.034;3.744;2023-04-06T09:11:20;15.20;;;8.07;;
21624;SDS011;10974;51.034;3.744;2023-04-06T09:16:12;8.90;;;7.10;;
21624;SDS011;10974;51.034;3.744;2023-04-06T09:18:38;10.07;;;8.00;;
21624;SDS011;10974;51.034;3.744;2023-04-06T09:21:05;11.60;;;7.87;;
21624;SDS011;10974;51.034;3.744;2023-04-06T09:23:32;12.17;;;7.80;;
21624;SDS011;10974;51.034;3.744;2023-04-06T09:26:05;11.80;;;7.67;;
21624;SDS011;10974;51.034;3.744;2023-04-06T09:28:44;9.57;;;6.70;;
21624;SDS011;10974;51.034;3.744;2023-04-06T09:31:11;11.60;;;7.97;;
21624;SDS011;10974;51.034;3.744;2023-04-06T09:33:38;10.40;;;8.00;;
21624;SDS011;10974;51.034;3.744;2023-04-06T09:36:05;11.87;;;7.70;;
21624;SDS011;10974;51.034;3.744;2023-04-06T09:38:31;16.33;;;7.33;;
21624;SDS011;10974;51.034;3.744;2023-04-06T09:40:57;10.20;;;7.67;;
21624;SDS011;10974;51.034;3.744;2023-04-06T09:43:24;11.47;;;7.70;;
21624;SDS011;10974;51.034;3.744;2023-04-06T09:45:51;9.83;;;7.37;;
21624;SDS011;10974;51.034;3.744;2023-04-06T09:48:17;11.53;;;6.50;;
21624;SDS011;10974;51.034;3.744;2023-04-06T09:50:46;10.40;;;7.63;;
21624;SDS011;10974;51.034;3.744;2023-04-06T09:53:13;9.90;;;7.77;;
21624;SDS011;10974;51.034;3.744;2023-04-06T09:55:42;11.90;;;8.37;;
21624;SDS011;10974;51.034;3.744;2023-04-06T09:58:17;11.67;;;8.53;;
21624;SDS011;10974;51.034;3.744;2023-04-06T10:00:52;8.23;;;6.73;;
21624;SDS011;10974;51.034;3.744;2023-04-06T10:03:28;12.00;;;8.10;;
21624;SDS011;10974;51.034;3.744;2023-04-06T10:05:56;9.30;;;7.33;;
21624;SDS011;10974;51.034;3.744;2023-04-06T10:08:26;8.40;;;7.20;;
21624;SDS011;10974;51.034;3.744;2023-04-06T10:10:54;9.63;;;8.00;;
21624;SDS011;10974;51.034;3.744;2023-04-06T10:13:21;10.27;;;7.20;;
21624;SDS011;10974;51.034;3.744;2023-04-06T10:15:49;11.27;;;8.30;;
21624;SDS011;10974;51.034;3.744;2023-04-06T10:18:16;9.97;;;7.57;;
21624;SDS011;10974;51.034;3.744;2023-04-06T10:21:00;10.10;;;7.53;;
21624;SDS011;10974;51.034;3.744;2023-04-06T10:26:22;8.13;;;6.90;;
21624;SDS011;10974;51.034;3.744;2023-04-06T10:28:49;8.93;;;7.60;;
21624;SDS011;10974;51.034;3.744;2023-04-06T10:31:23;9.20;;;7.30;;
21624;SDS011;10974;51.034;3.744;2023-04-06T10:33:59;9.20;;;6.60;;
21624;SDS011;10974;51.034;3.744;2023-04-06T10:36:26;10.67;;;7.20;;
21624;SDS011;10974;51.034;3.744;2023-04-06T10:38:56;12.37;;;7.10;;
21624;SDS011;10974;51.034;3.744;2023-04-06T10:41:23;11.17;;;6.60;;
21624;SDS011;10974;51.034;3.744;2023-04-06T10:43:57;7.13;;;6.03;;
21624;SDS011;10974;51.034;3.744;2023-04-06T10:46:26;7.50;;;6.70;;
21624;SDS011;10974;51.034;3.744;2023-04-06T10:48:53;8.30;;;6.20;;
21624;SDS011;10974;51.034;3.744;2023-04-06T10:51:19;12.33;;;6.57;;
21624;SDS011;10974;51.034;3.744;2023-04-06T10:53:49;7.90;;;6.23;;
21624;SDS011;10974;51.034;3.744;2023-04-06T10:56:16;7.60;;;6.77;;
21624;SDS011;10974;51.034;3.744;2023-04-06T11:01:12;9.03;;;6.20;;
21624;SDS011;10974;51.034;3.744;2023-04-06T11:03:48;6.90;;;5.87;;
21624;SDS011;10974;51.034;3.744;2023-04-06T11:06:17;6.20;;;5.20;;
21624;SDS011;10974;51.034;3.744;2023-04-06T11:08:43;10.10;;;6.03;;
21624;SDS011;10974;51.034;3.744;2023-04-06T11:11:10;7.63;;;5.40;;
21624;SDS011;10974;51.034;3.744;2023-04-06T11:13:41;11.50;;;5.90;;
21624;SDS011;10974;51.034;3.744;2023-04-06T11:16:17;8.27;;;5.90;;
21624;SDS011;10974;51.034;3.744;2023-04-06T11:21:13;6.27;;;5.40;;
21624;SDS011;10974;51.034;3.744;2023-04-06T11:23:39;6.63;;;5.07;;
21624;SDS011;10974;51.034;3.744;2023-04-06T11:26:09;7.90;;;5.70;;
21624;SDS011;10974;51.034;3.744;2023-04-06T11:28:36;7.20;;;5.57;;
21624;SDS011;10974;51.034;3.744;2023-04-06T11:31:02;8.90;;;4.90;;
21624;SDS011;10974;51.034;3.744;2023-04-06T11:33:28;7.03;;;4.73;;
21624;SDS011;10974;51.034;3.744;2023-04-06T11:35:58;6.20;;;4.67;;
21624;SDS011;10974;51.034;3.744;2023-04-06T11:38:25;6.47;;;4.60;;
21624;SDS011;10974;51.034;3.744;2023-04-06T11:40:53;9.30;;;4.20;;
21624;SDS011;10974;51.034;3.744;2023-04-06T11:43:25;4.77;;;4.27;;
21624;SDS011;10974;51.034;3.744;2023-04-06T11:45:52;4.80;;;4.30;;
21624;SDS011;10974;51.034;3.744;2023-04-06T11:48:26;4.33;;;4.00;;
21624;SDS011;10974;51.034;3.744;2023-04-06T11:50:55;4.57;;;4.17;;
21624;SDS011;10974;51.034;3.744;2023-04-06T11:53:22;8.00;;;5.30;;
21624;SDS011;10974;51.034;3.744;2023-04-06T11:55:48;5.50;;;4.90;;
21624;SDS011;10974;51.034;3.744;2023-04-06T11:58:14;5.10;;;4.60;;
21624;SDS011;10974;51.034;3.744;2023-04-06T12:00:40;4.33;;;3.93;;
21624;SDS011;10974;51.034;3.744;2023-04-06T12:03:10;5.23;;;4.73;;
21624;SDS011;10974;51.034;3.744;2023-04-06T12:05:36;5.07;;;4.57;;
21624;SDS011;10974;51.034;3.744;2023-04-06T12:08:02;5.23;;;4.73;;
21624;SDS011;10974;51.034;3.744;2023-04-06T12:10:30;6.07;;;5.37;;
21624;SDS011;10974;51.034;3.744;2023-04-06T12:12:56;6.10;;;5.40;;
21624;SDS011;10974;51.034;3.744;2023-04-06T12:15:22;5.33;;;4.83;;
21624;SDS011;10974;51.034;3.744;2023-04-06T12:17:48;6.13;;;5.20;;
21624;SDS011;10974;51.034;3.744;2023-04-06T12:20:15;6.13;;;5.33;;
21624;SDS011;10974;51.034;3.744;2023-04-06T12:22:41;5.70;;;5.20;;
21624;SDS011;10974;51.034;3.744;2023-04-06T12:25:07;6.17;;;5.50;;
21624;SDS011;10974;51.034;3.744;2023-04-06T12:27:33;6.80;;;5.73;;
21624;SDS011;10974;51.034;3.744;2023-04-06T12:29:59;7.87;;;5.80;;
21624;SDS011;10974;51.034;3.744;2023-04-06T12:32:25;7.17;;;6.30;;
21624;SDS011;10974;51.034;3.744;2023-04-06T12:34:54;7.40;;;6.33;;
21624;SDS011;10974;51.034;3.744;2023-04-06T12:37:20;10.13;;;6.97;;
21624;SDS011;10974;51.034;3.744;2023-04-06T12:39:46;7.43;;;6.03;;
21624;SDS011;10974;51.034;3.744;2023-04-06T12:42:13;8.40;;;5.93;;
21624;SDS011;10974;51.034;3.744;2023-04-06T12:44:39;6.63;;;5.90;;
21624;SDS011;10974;51.034;3.744;2023-04-06T12:47:07;10.70;;;6.67;;
21624;SDS011;10974;51.034;3.744;2023-04-06T12:49:33;8.13;;;6.80;;
21624;SDS011;10974;51.034;3.744;2023-04-06T12:52:01;8.37;;;6.17;;
21624;SDS011;10974;51.034;3.744;2023-04-06T12:54:27;7.90;;;6.37;;
21624;SDS011;10974;51.034;3.744;2023-04-06T12:56:53;7.97;;;6.80;;
21624;SDS011;10974;51.034;3.744;2023-04-06T12:59:21;6.83;;;6.13;;
21624;SDS011;10974;51.034;3.744;2023-04-06T13:01:47;7.77;;;6.67;;
21624;SDS011;10974;51.034;3.744;2023-04-06T13:04:13;7.70;;;6.33;;
21624;SDS011;10974;51.034;3.744;2023-04-06T13:06:39;11.87;;;7.23;;
21624;SDS011;10974;51.034;3.744;2023-04-06T13:09:06;12.20;;;6.53;;
21624;SDS011;10974;51.034;3.744;2023-04-06T13:11:32;7.70;;;6.17;;
21624;SDS011;10974;51.034;3.744;2023-04-06T13:13:58;7.43;;;6.67;;
21624;SDS011;10974;51.034;3.744;2023-04-06T13:16:25;7.13;;;6.17;;
21624;SDS011;10974;51.034;3.744;2023-04-06T13:18:51;7.10;;;6.40;;
21624;SDS011;10974;51.034;3.744;2023-04-06T13:21:17;8.17;;;6.33;;
21624;SDS011;10974;51.034;3.744;2023-04-06T13:23:44;6.87;;;6.17;;
21624;SDS011;10974;51.034;3.744;2023-04-06T13:26:10;6.40;;;5.80;;
21624;SDS011;10974;51.034;3.744;2023-04-06T13:28:38;8.83;;;6.97;;
21624;SDS011;10974;51.034;3.744;2023-04-06T13:31:04;7.50;;;6.37;;
21624;SDS011;10974;51.034;3.744;2023-04-06T13:33:30;7.00;;;6.17;;
21624;SDS011;10974;51.034;3.744;2023-04-06T13:35:57;7.97;;;6.20;;
21624;SDS011;10974;51.034;3.744;2023-04-06T13:38:23;7.30;;;6.57;;
21624;SDS011;10974;51.034;3.744;2023-04-06T13:40:49;6.30;;;5.70;;
21624;SDS011;10974;51.034;3.744;2023-04-06T13:43:16;8.17;;;7.37;;
21624;SDS011;10974;51.034;3.744;2023-04-06T13:45:48;9.00;;;7.13;;
21624;SDS011;10974;51.034;3.744;2023-04-06T13:48:15;9.50;;;7.00;;
21624;SDS011;10974;51.034;3.744;2023-04-06T13:50:41;11.07;;;6.60;;
21624;SDS011;10974;51.034;3.744;2023-04-06T13:53:07;9.57;;;7.37;;
21624;SDS011;10974;51.034;3.744;2023-04-06T13:55:33;8.47;;;6.83;;
21624;SDS011;10974;51.034;3.744;2023-04-06T13:57:59;8.00;;;6.87;;
21624;SDS011;10974;51.034;3.744;2023-04-06T14:00:25;10.57;;;7.30;;
21624;SDS011;10974;51.034;3.744;2023-04-06T14:02:53;8.37;;;7.27;;
21624;SDS011;10974;51.034;3.744;2023-04-06T14:05:20;9.03;;;7.90;;
21624;SDS011;10974;51.034;3.744;2023-04-06T14:07:46;9.57;;;7.50;;
21624;SDS011;10974;51.034;3.744;2023-04-06T14:10:13;10.27;;;7.40;;
21624;SDS011;10974;51.034;3.744;2023-04-06T14:12:40;9.63;;;7.10;;
21624;SDS011;10974;51.034;3.744;2023-04-06T14:15:07;10.80;;;7.90;;
21624;SDS011;10974;51.034;3.744;2023-04-06T14:17:33;13.17;;;6.93;;
21624;SDS011;10974;51.034;3.744;2023-04-06T14:19:59;9.97;;;6.57;;
21624;SDS011;10974;51.034;3.744;2023-04-06T14:22:25;14.90;;;7.93;;
21624;SDS011;10974;51.034;3.744;2023-04-06T14:24:51;9.60;;;6.67;;
21624;SDS011;10974;51.034;3.744;2023-04-06T14:27:17;9.83;;;6.60;;
21624;SDS011;10974;51.034;3.744;2023-04-06T14:29:43;8.27;;;6.00;;
21624;SDS011;10974;51.034;3.744;2023-04-06T14:32:10;8.87;;;6.43;;
21624;SDS011;10974;51.034;3.744;2023-04-06T14:34:39;9.90;;;6.10;;
21624;SDS011;10974;51.034;3.744;2023-04-06T14:37:05;9.90;;;6.30;;
21624;SDS011;10974;51.034;3.744;2023-04-06T14:39:31;10.70;;;6.23;;
21624;SDS011;10974;51.034;3.744;2023-04-06T14:41:58;17.10;;;7.87;;
21624;SDS011;10974;51.034;3.744;2023-04-06T14:44:27;8.83;;;6.30;;
21624;SDS011;10974;51.034;3.744;2023-04-06T14:46:54;9.53;;;6.60;;
21624;SDS011;10974;51.034;3.744;2023-04-06T14:49:20;9.47;;;7.07;;
21624;SDS011;10974;51.034;3.744;2023-04-06T14:51:46;10.77;;;6.83;;
21624;SDS011;10974;51.034;3.744;2023-04-06T14:54:12;9.70;;;6.67;;
21624;SDS011;10974;51.034;3.744;2023-04-06T14:56:38;11.70;;;6.80;;
21624;SDS011;10974;51.034;3.744;2023-04-06T14:59:05;10.90;;;7.33;;
21624;SDS011;10974;51.034;3.744;2023-04-06T15:01:33;8.40;;;6.60;;
21624;SDS011;10974;51.034;3.744;2023-04-06T15:04:03;12.00;;;7.47;;
21624;SDS011;10974;51.034;3.744;2023-04-06T15:06:29;11.63;;;7.33;;
21624;SDS011;10974;51.034;3.744;2023-04-06T15:08:55;11.90;;;7.03;;
21624;SDS011;10974;51.034;3.744;2023-04-06T15:11:21;12.40;;;7.20;;
21624;SDS011;10974;51.034;3.744;2023-04-06T15:13:48;10.63;;;6.87;;
21624;SDS011;10974;51.034;3.744;2023-04-06T15:16:14;12.13;;;6.73;;
21624;SDS011;10974;51.034;3.744;2023-04-06T15:18:40;9.23;;;6.40;;
21624;SDS011;10974;51.034;3.744;2023-04-06T15:21:06;14.17;;;8.77;;
21624;SDS011;10974;51.034;3.744;2023-04-06T15:23:32;15.77;;;7.47;;
21624;SDS011;10974;51.034;3.744;2023-04-06T15:25:59;10.83;;;6.33;;
21624;SDS011;10974;51.034;3.744;2023-04-06T15:28:25;15.37;;;7.60;;
21624;SDS011;10974;51.034;3.744;2023-04-06T15:30:53;14.20;;;5.90;;
21624;SDS011;10974;51.034;3.744;2023-04-06T15:33:19;8.80;;;5.20;;
21624;SDS011;10974;51.034;3.744;2023-04-06T15:35:46;10.83;;;5.20;;
21624;SDS011;10974;51.034;3.744;2023-04-06T15:38:12;11.00;;;4.73;;
21624;SDS011;10974;51.034;3.744;2023-04-06T15:40:41;9.30;;;4.20;;
21624;SDS011;10974;51.034;3.744;2023-04-06T15:43:08;13.60;;;3.90;;
21624;SDS011;10974;51.034;3.744;2023-04-06T15:45:34;11.67;;;3.40;;
21624;SDS011;10974;51.034;3.744;2023-04-06T15:48:00;14.67;;;4.20;;
21624;SDS011;10974;51.034;3.744;2023-04-06T15:50:26;10.77;;;4.50;;
21624;SDS011;10974;51.034;3.744;2023-04-06T15:52:53;9.33;;;2.80;;
21624;SDS011;10974;51.034;3.744;2023-04-06T15:55:19;11.83;;;4.00;;
21624;SDS011;10974;51.034;3.744;2023-04-06T15:57:45;6.30;;;2.40;;
21624;SDS011;10974;51.034;3.744;2023-04-06T16:00:11;7.57;;;2.00;;
21624;SDS011;10974;51.034;3.744;2023-04-06T16:02:37;4.00;;;2.13;;
21624;SDS011;10974;51.034;3.744;2023-04-06T16:05:03;2.47;;;1.73;;
21624;SDS011;10974;51.034;3.744;2023-04-06T16:07:30;3.43;;;2.00;;
21624;SDS011;10974;51.034;3.744;2023-04-06T16:09:57;8.07;;;2.10;;
21624;SDS011;10974;51.034;3.744;2023-04-06T16:12:23;6.30;;;2.70;;
21624;SDS011;10974;51.034;3.744;2023-04-06T16:14:49;7.40;;;2.13;;
21624;SDS011;10974;51.034;3.744;2023-04-06T16:17:15;6.67;;;2.03;;
21624;SDS011;10974;51.034;3.744;2023-04-06T16:19:41;7.87;;;2.20;;
21624;SDS011;10974;51.034;3.744;2023-04-06T16:22:07;6.43;;;2.20;;
21624;SDS011;10974;51.034;3.744;2023-04-06T16:24:33;9.63;;;2.67;;
21624;SDS011;10974;51.034;3.744;2023-04-06T16:27:00;7.30;;;2.00;;
21624;SDS011;10974;51.034;3.744;2023-04-06T16:29:26;3.80;;;1.97;;
21624;SDS011;10974;51.034;3.744;2023-04-06T16:31:52;5.83;;;1.87;;
21624;SDS011;10974;51.034;3.744;2023-04-06T16:34:19;5.53;;;2.03;;
21624;SDS011;10974;51.034;3.744;2023-04-06T16:36:45;8.20;;;2.00;;
21624;SDS011;10974;51.034;3.744;2023-04-06T16:39:11;6.20;;;2.30;;
21624;SDS011;10974;51.034;3.744;2023-04-06T16:41:37;5.40;;;2.20;;
21624;SDS011;10974;51.034;3.744;2023-04-06T16:44:04;7.83;;;2.40;;
21624;SDS011;10974;51.034;3.744;2023-04-06T16:48:56;6.87;;;2.33;;
21624;SDS011;10974;51.034;3.744;2023-04-06T16:51:22;8.90;;;2.33;;
21624;SDS011;10974;51.034;3.744;2023-04-06T16:53:48;4.23;;;2.23;;
21624;SDS011;10974;51.034;3.744;2023-04-06T16:56:14;3.20;;;1.83;;
21624;SDS011;10974;51.034;3.744;2023-04-06T16:58:40;2.17;;;1.37;;
21624;SDS011;10974;51.034;3.744;2023-04-06T17:01:06;1.90;;;1.40;;
21624;SDS011;10974;51.034;3.744;2023-04-06T17:03:32;1.53;;;1.37;;
21624;SDS011;10974;51.034;3.744;2023-04-06T17:05:59;6.07;;;2.10;;
21624;SDS011;10974;51.034;3.744;2023-04-06T17:08:25;3.33;;;1.70;;
21624;SDS011;10974;51.034;3.744;2023-04-06T17:10:51;5.20;;;2.50;;
21624;SDS011;10974;51.034;3.744;2023-04-06T17:13:17;5.10;;;3.10;;
21624;SDS011;10974;51.034;3.744;2023-04-06T17:15:43;6.43;;;2.90;;
21624;SDS011;10974;51.034;3.744;2023-04-06T17:18:09;4.57;;;2.40;;
21624;SDS011;10974;51.034;3.744;2023-04-06T17:20:36;7.57;;;2.50;;
21624;SDS011;10974;51.034;3.744;2023-04-06T17:23:02;4.30;;;2.27;;
21624;SDS011;10974;51.034;3.744;2023-04-06T17:25:28;3.90;;;2.30;;
21624;SDS011;10974;51.034;3.744;2023-04-06T17:27:54;3.30;;;1.67;;
21624;SDS011;10974;51.034;3.744;2023-04-06T17:30:20;3.07;;;2.00;;
21624;SDS011;10974;51.034;3.744;2023-04-06T17:32:46;4.63;;;2.13;;
21624;SDS011;10974;51.034;3.744;2023-04-06T17:35:12;3.70;;;2.07;;
21624;SDS011;10974;51.034;3.744;2023-04-06T17:37:38;1.73;;;1.47;;
21624;SDS011;10974;51.034;3.744;2023-04-06T17:40:04;2.50;;;1.70;;
21624;SDS011;10974;51.034;3.744;2023-04-06T17:42:31;2.90;;;1.53;;
21624;SDS011;10974;51.034;3.744;2023-04-06T17:44:57;4.30;;;1.60;;
21624;SDS011;10974;51.034;3.744;2023-04-06T17:47:23;4.77;;;1.90;;
21624;SDS011;10974;51.034;3.744;2023-04-06T17:49:49;2.80;;;1.80;;
21624;SDS011;10974;51.034;3.744;2023-04-06T17:52:15;3.93;;;2.00;;
21624;SDS011;10974;51.034;3.744;2023-04-06T17:54:41;6.03;;;1.90;;
21624;SDS011;10974;51.034;3.744;2023-04-06T17:57:07;4.87;;;2.30;;
21624;SDS011;10974;51.034;3.744;2023-04-06T17:59:34;5.83;;;2.10;;
21624;SDS011;10974;51.034;3.744;2023-04-06T18:02:00;3.33;;;1.83;;
21624;SDS011;10974;51.034;3.744;2023-04-06T18:04:28;4.63;;;1.70;;
21624;SDS011;10974;51.034;3.744;2023-04-06T18:06:54;3.20;;;1.83;;
21624;SDS011;10974;51.034;3.744;2023-04-06T18:09:20;3.60;;;2.50;;
21624;SDS011;10974;51.034;3.744;2023-04-06T18:11:46;3.13;;;2.23;;
21624;SDS011;10974;51.034;3.744;2023-04-06T18:14:12;2.33;;;2.13;;
21624;SDS011;10974;51.034;3.744;2023-04-06T18:16:39;3.60;;;2.10;;
21624;SDS011;10974;51.034;3.744;2023-04-06T18:19:06;4.07;;;1.47;;
21624;SDS011;10974;51.034;3.744;2023-04-06T18:21:32;4.53;;;2.23;;
21624;SDS011;10974;51.034;3.744;2023-04-06T18:23:58;3.13;;;1.80;;
21624;SDS011;10974;51.034;3.744;2023-04-06T18:26:25;3.50;;;1.70;;